createdAt,value
2019-05-25T00:01:55.947Z,83.48
2019-05-25T00:07:29.116Z,85.58
2019-05-25T00:12:31.509Z,83.95
2019-05-25T00:18:09.050Z,84.25
2019-05-25T00:22:54.324Z,84.55
2019-05-25T00:34:58.246Z,85.18
2019-05-25T00:39:54.953Z,85.89
2019-05-25T00:45:02.278Z,85.79
2019-05-25T00:50:09.121Z,84.61
2019-05-25T00:55:16.304Z,86.95
2019-05-25T01:00:23.753Z,86.33
2019-05-25T01:05:35.491Z,86.26
2019-05-25T01:10:39.129Z,87.09
2019-05-25T01:15:36.906Z,86.16
2019-05-25T01:20:32.960Z,86.57
2019-05-25T01:25:35.703Z,87.87
2019-05-25T01:30:37.968Z,88.60
2019-05-25T01:35:47.443Z,87.84
2019-05-25T01:40:48.377Z,87.90
2019-05-25T01:45:44.764Z,88.76
2019-05-25T01:50:42.300Z,89.12
2019-05-25T01:55:40.313Z,88.50
2019-05-25T02:00:36.465Z,89.04
2019-05-25T02:05:32.777Z,90.06
2019-05-25T02:10:30.353Z,91.05
2019-05-25T02:15:26.615Z,90.53
2019-05-25T02:20:24.829Z,88.46
2019-05-25T02:25:22.916Z,89.83
2019-05-25T02:30:33.529Z,89.30
2019-05-25T02:35:31.845Z,89.10
2019-05-25T02:40:29.544Z,90.05
2019-05-25T02:45:28.013Z,92.74
2019-05-25T02:50:24.793Z,92.12
2019-05-25T02:55:33.846Z,90.51
2019-05-25T03:00:35.453Z,91.07
2019-05-25T03:05:34.857Z,90.39
2019-05-25T03:10:32.966Z,90.73
2019-05-25T03:15:29.415Z,91.28
2019-05-25T03:20:25.637Z,93.09
2019-05-25T03:25:22.052Z,92.89
2019-05-25T03:30:25.509Z,92.65
2019-05-25T03:35:24.870Z,93.07
2019-05-25T03:40:21.455Z,93.03
2019-05-25T03:45:21.443Z,93.11
2019-05-25T03:50:18.446Z,95.88
2019-05-25T03:55:14.314Z,94.76
2019-05-25T04:00:10.765Z,93.15
2019-05-25T04:05:07.094Z,94.83
2019-05-25T04:10:03.102Z,94.16
2019-05-25T04:14:58.906Z,95.20
2019-05-25T04:19:54.686Z,95.21
2019-05-25T04:24:50.874Z,94.41
2019-05-25T04:29:46.773Z,94.93
2019-05-25T04:34:42.632Z,96.23
2019-05-25T04:39:42.414Z,95.99
2019-05-25T04:44:38.587Z,95.97
2019-05-25T04:49:34.904Z,97.63
2019-05-25T04:54:36.377Z,97.74
2019-05-25T04:59:32.373Z,96.40
2019-05-25T05:04:28.466Z,97.03
2019-05-25T05:09:27.850Z,98.95
2019-05-25T05:14:31.082Z,99.55
2019-05-25T05:20:32.033Z,99.64
2019-05-25T05:25:33.215Z,99.64
2019-05-25T05:43:07.183Z,100.00
2019-05-25T05:48:32.913Z,100.00
2019-05-25T05:54:30.500Z,100.00
2019-05-25T06:00:16.595Z,100.00
2019-05-25T06:05:12.216Z,100.00
2019-05-25T06:10:11.256Z,100.00
2019-05-25T06:15:08.396Z,100.00
2019-05-25T06:20:05.594Z,100.00
2019-05-25T06:25:02.017Z,100.00
2019-05-25T06:30:01.230Z,100.00
2019-05-25T06:34:58.708Z,100.00
2019-05-25T06:39:57.081Z,100.00
2019-05-25T06:44:59.344Z,100.00
2019-05-25T06:50:13.852Z,99.57
2019-05-25T06:55:17.837Z,100.00
2019-05-25T07:00:21.119Z,98.37
2019-05-25T07:05:19.342Z,99.10
2019-05-25T07:10:41.706Z,99.73
2019-05-25T07:15:39.688Z,100.00
2019-05-25T07:20:56.848Z,99.79
2019-05-25T07:25:48.423Z,100.00
2019-05-25T07:30:46.687Z,99.17
2019-05-25T07:35:43.402Z,98.51
2019-05-25T07:40:39.646Z,96.71
2019-05-25T07:45:35.998Z,93.03
2019-05-25T07:50:32.161Z,91.48
2019-05-25T07:55:28.626Z,90.08
2019-05-25T08:00:25.322Z,87.04
2019-05-25T08:05:21.622Z,85.36
2019-05-25T08:10:18.218Z,86.28
2019-05-25T08:15:15.102Z,88.13
2019-05-25T08:20:11.919Z,88.82
2019-05-25T08:25:08.938Z,84.72
2019-05-25T08:30:06.250Z,82.92
2019-05-25T08:35:02.604Z,77.61
2019-05-25T08:39:58.705Z,80.35
2019-05-25T08:44:54.718Z,74.12
2019-05-25T08:49:51.369Z,72.86
2019-05-25T08:54:47.819Z,71.05
2019-05-25T08:59:43.911Z,69.39
2019-05-25T09:04:39.963Z,71.90
2019-05-25T09:09:35.836Z,74.49
2019-05-25T09:14:32.226Z,68.71
2019-05-25T09:19:28.449Z,72.35
2019-05-25T09:24:24.904Z,73.18
2019-05-25T09:29:21.049Z,69.12
2019-05-25T09:34:20.299Z,67.80
2019-05-25T09:39:16.816Z,68.00
2019-05-25T09:44:14.731Z,69.45
2019-05-25T09:49:11.973Z,70.61
2019-05-25T09:54:09.743Z,66.36
2019-05-25T09:59:19.167Z,64.71
2019-05-25T10:04:14.882Z,61.26
2019-05-25T10:09:26.347Z,63.51
2019-05-25T10:14:21.113Z,63.42
2019-05-25T10:19:52.611Z,64.56
2019-05-25T10:24:51.471Z,62.07
2019-05-25T10:29:49.899Z,64.66
2019-05-25T10:34:48.448Z,62.41
2019-05-25T10:39:49.401Z,58.85
2019-05-25T10:44:53.295Z,58.34
2019-05-25T10:49:57.057Z,56.24
2019-05-25T10:54:53.394Z,54.90
2019-05-25T10:59:53.221Z,55.01
2019-05-25T11:05:02.465Z,55.39
2019-05-25T11:10:56.336Z,55.68
2019-05-25T11:15:43.770Z,57.75
2019-05-25T11:20:42.776Z,58.25
2019-05-25T11:25:51.592Z,58.87
2019-05-25T11:30:44.971Z,58.97
2019-05-25T11:35:41.067Z,59.41
2019-05-25T11:40:51.881Z,56.69
2019-05-25T11:45:59.747Z,58.33
2019-05-25T11:50:49.234Z,61.76
2019-05-25T11:55:45.436Z,58.73
2019-05-25T12:00:41.602Z,60.43
2019-05-25T12:05:40.611Z,57.06
2019-05-25T12:10:36.623Z,58.48
2019-05-25T12:16:31.287Z,60.89
2019-05-25T12:22:06.230Z,58.56
2019-05-25T12:27:50.697Z,57.46
2019-05-25T12:32:46.871Z,52.43
2019-05-25T12:38:16.709Z,53.61
2019-05-25T12:43:12.904Z,55.12
2019-05-25T12:48:09.142Z,56.39
2019-05-25T12:53:05.206Z,61.32
2019-05-25T12:58:01.368Z,63.65
2019-05-25T13:02:57.194Z,60.65
2019-05-25T13:07:53.197Z,62.93
2019-05-25T13:12:49.028Z,65.22
2019-05-25T13:17:44.823Z,69.27
2019-05-25T13:22:40.581Z,73.54
2019-05-25T13:27:36.427Z,78.39
2019-05-25T13:32:32.322Z,90.07
2019-05-25T13:37:31.246Z,87.43
2019-05-25T13:42:27.317Z,96.78
2019-05-25T13:47:23.217Z,90.82
2019-05-25T13:52:19.073Z,95.68
2019-05-25T13:57:17.471Z,98.80
2019-05-25T14:02:13.288Z,99.69
2019-05-25T14:07:09.198Z,94.75
2019-05-25T14:12:05.075Z,95.44
2019-05-25T14:17:01.837Z,97.93
2019-05-25T14:21:57.661Z,96.55
2019-05-25T14:26:53.501Z,96.83
2019-05-25T14:31:49.324Z,93.89
2019-05-25T14:36:45.136Z,91.67
2019-05-25T14:42:35.588Z,96.34
2019-05-25T14:48:34.330Z,94.79
2019-05-25T14:54:32.380Z,96.51
2019-05-25T15:05:33.503Z,97.09
2019-05-25T15:22:30.490Z,96.72
2019-05-25T15:28:32.013Z,98.10
2019-05-25T15:33:28.278Z,95.87
2019-05-25T15:38:24.342Z,100.00
2019-05-25T15:43:20.151Z,99.45
2019-05-25T15:48:16.784Z,100.00
2019-05-25T15:53:12.903Z,98.93
2019-05-25T15:58:09.515Z,96.63
2019-05-25T16:03:05.973Z,96.37
2019-05-25T16:08:03.777Z,100.00
2019-05-25T16:13:00.133Z,95.66
2019-05-25T16:18:01.564Z,98.68
2019-05-25T16:22:59.545Z,96.97
2019-05-25T16:27:55.748Z,94.91
2019-05-25T16:37:49.835Z,89.32
2019-05-25T16:42:48.680Z,90.33
2019-05-25T16:47:44.799Z,90.10
2019-05-25T16:52:41.165Z,91.62
2019-05-25T16:57:39.775Z,89.46
2019-05-25T17:02:36.024Z,92.13
2019-05-25T17:07:31.979Z,93.46
2019-05-25T17:12:28.099Z,95.33
2019-05-25T17:17:23.850Z,94.33
2019-05-25T17:22:22.037Z,94.65
2019-05-25T17:27:17.952Z,94.93
2019-05-25T17:32:17.718Z,97.35
2019-05-25T17:37:18.498Z,96.72
2019-05-25T17:42:14.287Z,96.89
2019-05-25T17:47:18.960Z,93.62
2019-05-25T17:52:15.061Z,97.03
2019-05-25T17:57:11.035Z,100.00
2019-05-25T18:02:07.848Z,99.50
2019-05-25T18:07:06.169Z,100.00
2019-05-25T18:12:09.231Z,100.00
2019-05-25T18:17:10.190Z,100.00
2019-05-25T18:22:26.661Z,97.66
2019-05-25T18:30:30.933Z,99.55
2019-05-25T18:33:28.563Z,99.39
2019-05-25T18:44:12.313Z,99.36
2019-05-25T18:49:43.325Z,98.95
2019-05-25T19:00:41.446Z,100.00
2019-05-25T19:06:36.397Z,100.00
2019-05-25T19:12:31.864Z,100.00
2019-05-25T19:47:21.171Z,100.00
2019-05-25T19:52:18.007Z,100.00
2019-05-25T19:57:13.757Z,100.00
2019-05-25T20:02:09.865Z,100.00
2019-05-25T20:07:05.778Z,100.00
2019-05-25T20:12:01.818Z,100.00
2019-05-25T20:16:57.626Z,100.00
2019-05-25T20:21:53.725Z,100.00
2019-05-25T20:26:49.547Z,100.00
2019-05-25T20:31:45.579Z,100.00
2019-05-25T20:36:41.462Z,100.00
2019-05-25T20:41:37.216Z,100.00
2019-05-25T20:46:33.859Z,100.00
2019-05-25T20:51:29.757Z,100.00
2019-05-25T20:56:25.766Z,100.00
2019-05-25T21:01:21.573Z,100.00
2019-05-25T21:06:17.334Z,100.00
2019-05-25T21:11:13.266Z,100.00
2019-05-25T21:16:09.150Z,100.00
2019-05-25T21:21:04.902Z,100.00
2019-05-25T21:26:04.028Z,100.00
2019-05-25T21:30:59.767Z,100.00
2019-05-25T21:36:07.533Z,100.00
2019-05-25T21:40:54.077Z,100.00
2019-05-25T21:45:51.579Z,100.00
2019-05-25T21:50:51.464Z,100.00
2019-05-25T21:55:47.244Z,100.00
2019-05-25T22:00:46.338Z,100.00
2019-05-25T22:05:47.653Z,100.00
2019-05-25T22:10:43.491Z,100.00
2019-05-25T22:15:39.410Z,100.00
2019-05-25T22:20:35.236Z,100.00
2019-05-25T22:25:30.991Z,100.00
2019-05-25T22:30:26.807Z,100.00
2019-05-25T22:35:22.651Z,100.00
2019-05-25T22:40:19.142Z,100.00
2019-05-25T22:45:15.171Z,100.00
2019-05-25T22:50:11.289Z,100.00
2019-05-25T22:55:10.748Z,100.00
2019-05-25T23:00:09.228Z,100.00
2019-05-25T23:05:07.252Z,100.00
2019-05-25T23:10:02.961Z,100.00
2019-05-25T23:14:58.729Z,100.00
2019-05-25T23:19:54.657Z,100.00
2019-05-25T23:24:50.491Z,100.00
2019-05-25T23:29:46.156Z,100.00
2019-05-25T23:34:42.523Z,100.00
2019-05-25T23:39:38.307Z,100.00
2019-05-25T23:44:34.066Z,100.00
2019-05-25T23:49:32.276Z,100.00
2019-05-25T23:54:28.424Z,100.00
2019-05-25T23:59:24.343Z,100.00
